Dellrose, Tennessee
Current Conditions -  °F | °C
As of 3:55 AM on Friday 28 Nov 2014 (Local Time) from KFYM Reporting Station
Clear Clear  
Wind Chill:   Ceiling: Unl
Heat Index: 21°   Visibility: 10mi
Dew Point: 18°   Wind: 13mph
Humidity: 86%   Direction: 20°NNE
Pressure: 30.41"   Gusts: 35mph
Location:  35.11°N, 86.8°W
Report Text: KFYM 280955Z AUTO 02011G30KT 10SM CLR M06/M08 A3041 RMK
Loading
Personal Weather Stations






























Interactive Weather Map New forecast layout! Learn more

10-Day Weather Forecast

Advertisements
Track Severe Weather on mobile